createdAt,value
2019-04-25T00:00:05.809Z,8.30
2019-04-25T00:02:34.085Z,8.80
2019-04-25T00:05:01.358Z,7.70
2019-04-25T00:07:27.950Z,8.18
2019-04-25T00:09:55.229Z,9.73
2019-04-25T00:12:22.278Z,7.95
2019-04-25T00:14:48.508Z,7.80
2019-04-25T00:17:14.370Z,6.87
2019-04-25T00:19:42.194Z,8.18
2019-04-25T00:22:13.783Z,8.63
2019-04-25T00:24:58.179Z,7.47
2019-04-25T00:27:25.246Z,9.73
2019-04-25T00:29:51.721Z,7.53
2019-04-25T00:32:18.350Z,6.08
2019-04-25T00:34:45.664Z,6.72
2019-04-25T00:37:13.926Z,6.58
2019-04-25T00:39:41.308Z,6.17
2019-04-25T00:42:08.313Z,6.53
2019-04-25T00:44:34.161Z,6.25
2019-04-25T00:46:59.922Z,7.70
2019-04-25T00:49:26.247Z,11.97
2019-04-25T00:51:53.196Z,8.90
2019-04-25T00:54:19.816Z,8.10
2019-04-25T00:56:47.770Z,10.13
2019-04-25T00:59:18.422Z,8.08
2019-04-25T01:01:49.287Z,9.35
2019-04-25T01:04:16.704Z,9.60
2019-04-25T01:06:43.978Z,11.57
2019-04-25T01:09:14.813Z,8.68
2019-04-25T01:11:42.312Z,10.68
2019-04-25T01:14:08.314Z,9.28
2019-04-25T01:16:34.181Z,10.48
2019-04-25T01:19:00.079Z,9.10
2019-04-25T01:21:25.956Z,9.58
2019-04-25T01:23:53.277Z,9.78
2019-04-25T01:26:20.057Z,10.25
2019-04-25T01:28:46.195Z,11.83
2019-04-25T01:31:14.575Z,10.05
2019-04-25T01:33:40.789Z,10.23
2019-04-25T01:36:09.067Z,9.53
2019-04-25T01:38:43.292Z,8.83
2019-04-25T01:41:14.657Z,8.60
2019-04-25T01:43:43.664Z,9.23
2019-04-25T01:46:10.373Z,5.95
2019-04-25T01:48:36.605Z,7.53
2019-04-25T01:51:04.106Z,6.92
2019-04-25T01:53:30.285Z,6.28
2019-04-25T01:56:02.724Z,6.53
2019-04-25T01:58:23.804Z,7.33
2019-04-25T02:00:52.096Z,6.40
2019-04-25T02:03:18.420Z,6.30
2019-04-25T02:05:44.276Z,7.22
2019-04-25T02:08:10.606Z,7.10
2019-04-25T02:10:37.254Z,5.25
2019-04-25T02:13:08.398Z,6.10
2019-04-25T02:15:35.033Z,5.83
2019-04-25T02:18:01.842Z,5.83
2019-04-25T02:20:29.117Z,4.62
2019-04-25T02:22:56.462Z,4.20
2019-04-25T02:25:22.969Z,4.80
2019-04-25T02:27:50.688Z,4.22
2019-04-25T02:30:17.822Z,3.70
2019-04-25T02:32:44.253Z,4.22
2019-04-25T02:35:11.020Z,4.40
2019-04-25T02:37:37.243Z,5.35
2019-04-25T02:40:07.879Z,5.08
2019-04-25T02:42:34.332Z,5.47
2019-04-25T02:45:06.531Z,4.78
2019-04-25T02:47:34.443Z,4.42
2019-04-25T02:50:11.319Z,5.22
2019-04-25T02:52:39.050Z,4.85
2019-04-25T02:55:10.557Z,4.55
2019-04-25T02:57:34.587Z,4.35
2019-04-25T03:00:02.682Z,5.30
2019-04-25T03:02:29.440Z,5.12
2019-04-25T03:04:57.508Z,4.78
2019-04-25T03:07:24.570Z,4.75
2019-04-25T03:09:50.657Z,4.70
2019-04-25T03:12:29.157Z,4.35
2019-04-25T03:14:44.733Z,3.35
2019-04-25T03:17:11.323Z,4.37
2019-04-25T03:19:43.923Z,5.15
2019-04-25T03:22:12.042Z,4.70
2019-04-25T03:24:39.831Z,4.65
2019-04-25T03:27:06.488Z,5.70
2019-04-25T03:29:34.193Z,5.83
2019-04-25T03:32:02.021Z,4.90
2019-04-25T03:34:28.565Z,5.00
2019-04-25T03:36:54.436Z,4.83
2019-04-25T03:39:20.573Z,5.97
2019-04-25T03:41:46.800Z,5.55
2019-04-25T03:44:13.882Z,4.72
2019-04-25T03:46:40.489Z,5.28
2019-04-25T03:49:06.329Z,5.33
2019-04-25T03:51:33.815Z,5.55
2019-04-25T03:54:00.096Z,4.90
2019-04-25T03:56:27.046Z,4.33
2019-04-25T03:58:54.031Z,4.97
2019-04-25T04:01:19.922Z,5.33
2019-04-25T04:03:45.751Z,4.87
2019-04-25T04:06:11.893Z,4.80
2019-04-25T04:08:38.144Z,5.12
2019-04-25T04:11:05.335Z,4.80
2019-04-25T04:13:31.718Z,4.70
2019-04-25T04:15:58.042Z,4.17
2019-04-25T04:18:37.822Z,4.25
2019-04-25T04:21:09.009Z,4.40
2019-04-25T04:23:57.208Z,4.28
2019-04-25T04:26:23.506Z,4.65
2019-04-25T04:28:49.733Z,4.58
2019-04-25T04:31:16.478Z,5.05
2019-04-25T04:33:43.178Z,3.92
2019-04-25T04:36:09.290Z,4.35
2019-04-25T04:38:35.134Z,3.85
2019-04-25T04:41:00.973Z,4.42
2019-04-25T04:43:27.530Z,4.47
2019-04-25T04:45:54.111Z,3.10
2019-04-25T04:48:20.395Z,3.17
2019-04-25T04:50:46.281Z,2.25
2019-04-25T04:53:13.194Z,3.30
2019-04-25T04:55:40.727Z,3.77
2019-04-25T04:58:06.609Z,2.67
2019-04-25T05:00:33.871Z,2.70
2019-04-25T05:03:01.821Z,3.02
2019-04-25T05:05:39.162Z,3.42
2019-04-25T05:08:07.425Z,2.70
2019-04-25T05:10:33.653Z,2.80
2019-04-25T05:12:59.574Z,2.70
2019-04-25T05:15:25.781Z,2.80
2019-04-25T05:17:54.171Z,3.10
2019-04-25T05:20:21.096Z,2.40
2019-04-25T05:22:46.847Z,2.65
2019-04-25T05:25:16.201Z,2.60
2019-04-25T05:27:57.643Z,2.20
2019-04-25T05:30:11.350Z,2.35
2019-04-25T05:32:37.629Z,2.60
2019-04-25T05:35:05.039Z,2.22
2019-04-25T05:37:30.870Z,2.33
2019-04-25T05:39:57.098Z,2.00
2019-04-25T05:42:27.808Z,2.70
2019-04-25T05:44:56.094Z,2.20
2019-04-25T05:47:24.406Z,2.22
2019-04-25T05:49:50.287Z,1.98
2019-04-25T05:52:16.149Z,2.10
2019-04-25T05:54:42.129Z,2.42
2019-04-25T05:57:08.495Z,2.08
2019-04-25T05:59:34.803Z,2.30
2019-04-25T06:02:00.923Z,2.00
2019-04-25T06:04:27.347Z,3.27
2019-04-25T06:06:55.211Z,1.95
2019-04-25T06:09:24.095Z,2.22
2019-04-25T06:11:56.860Z,2.30
2019-04-25T06:14:24.068Z,2.15
2019-04-25T06:16:53.637Z,2.02
2019-04-25T06:19:39.717Z,1.80
2019-04-25T06:22:07.526Z,2.22
2019-04-25T06:24:35.838Z,1.90
2019-04-25T06:27:16.002Z,1.90
2019-04-25T06:29:43.449Z,2.40
2019-04-25T06:32:09.313Z,2.12
2019-04-25T06:34:36.483Z,1.87
2019-04-25T06:37:04.744Z,1.45
2019-04-25T06:39:30.841Z,1.77
2019-04-25T06:41:56.615Z,1.70
2019-04-25T06:44:31.074Z,1.90
2019-04-25T06:47:04.598Z,1.98
2019-04-25T06:49:43.120Z,1.92
2019-04-25T06:52:09.190Z,2.22
2019-04-25T06:54:35.644Z,1.92
2019-04-25T06:57:01.540Z,2.00
2019-04-25T06:59:28.745Z,1.92
2019-04-25T07:01:56.235Z,2.02
2019-04-25T07:04:25.112Z,1.50
2019-04-25T07:06:50.887Z,1.40
2019-04-25T07:09:17.130Z,1.25
2019-04-25T07:11:43.996Z,1.45
2019-04-25T07:14:10.492Z,1.70
2019-04-25T07:16:37.041Z,1.45
2019-04-25T07:19:04.524Z,1.60
2019-04-25T07:21:31.152Z,2.27
2019-04-25T07:23:57.357Z,2.67
2019-04-25T07:26:28.924Z,2.30
2019-04-25T07:28:56.657Z,2.27
2019-04-25T07:31:40.840Z,2.50
2019-04-25T07:34:14.606Z,1.20
2019-04-25T07:36:40.860Z,3.12
2019-04-25T07:39:10.680Z,1.10
2019-04-25T07:41:38.085Z,1.60
2019-04-25T07:44:04.288Z,1.60
2019-04-25T07:46:32.806Z,1.30
2019-04-25T07:48:59.794Z,1.32
2019-04-25T07:51:26.782Z,1.20
2019-04-25T07:53:53.463Z,1.67
2019-04-25T07:56:20.117Z,2.40
2019-04-25T07:58:52.259Z,2.20
2019-04-25T08:01:14.726Z,1.92
2019-04-25T08:03:41.262Z,1.40
2019-04-25T08:06:07.995Z,1.90
2019-04-25T08:08:34.905Z,1.45
2019-04-25T08:11:04.218Z,1.25
2019-04-25T08:13:32.546Z,1.30
2019-04-25T08:16:03.300Z,1.40
2019-04-25T08:18:30.190Z,1.50
2019-04-25T08:20:56.997Z,1.20
2019-04-25T08:23:23.830Z,1.50
2019-04-25T08:25:50.121Z,1.47
2019-04-25T08:28:15.873Z,1.57
2019-04-25T08:30:41.806Z,1.85
2019-04-25T08:33:09.207Z,2.60
2019-04-25T08:35:36.428Z,1.62
2019-04-25T08:38:03.709Z,1.40
2019-04-25T08:40:32.358Z,1.20
2019-04-25T08:42:58.250Z,1.17
2019-04-25T08:45:24.532Z,0.93
2019-04-25T08:47:50.990Z,1.70
2019-04-25T08:50:28.831Z,1.72
2019-04-25T08:52:54.350Z,1.60
2019-04-25T08:55:38.708Z,1.47
2019-04-25T08:58:07.059Z,1.15
2019-04-25T09:00:44.772Z,1.20
2019-04-25T09:03:18.706Z,1.30
2019-04-25T09:05:46.752Z,1.40
2019-04-25T09:08:14.198Z,1.37
2019-04-25T09:10:41.325Z,1.30
2019-04-25T09:13:07.773Z,1.52
2019-04-25T09:15:36.561Z,1.20
2019-04-25T09:18:03.971Z,1.52
2019-04-25T09:20:30.541Z,1.20
2019-04-25T09:22:56.410Z,1.40
2019-04-25T09:25:23.833Z,1.67
2019-04-25T09:27:50.465Z,1.50
2019-04-25T09:30:16.571Z,1.00
2019-04-25T09:32:42.952Z,1.32
2019-04-25T09:35:10.121Z,1.10
2019-04-25T09:37:36.733Z,1.00
2019-04-25T09:40:06.937Z,1.10
2019-04-25T09:42:33.830Z,1.25
2019-04-25T09:45:17.621Z,1.20
2019-04-25T09:47:45.788Z,1.32
2019-04-25T09:50:13.976Z,1.05
2019-04-25T09:52:40.210Z,1.45
2019-04-25T09:55:24.633Z,1.05
2019-04-25T09:57:55.271Z,1.40
2019-04-25T10:00:41.201Z,1.67
2019-04-25T10:03:07.472Z,1.10
2019-04-25T10:05:33.966Z,1.12
2019-04-25T10:07:59.968Z,1.12
2019-04-25T10:10:25.828Z,1.37
2019-04-25T10:12:51.661Z,1.45
2019-04-25T10:15:24.029Z,1.10
2019-04-25T10:17:50.166Z,1.65
2019-04-25T10:20:16.058Z,1.27
2019-04-25T10:22:44.263Z,1.10
2019-04-25T10:25:10.395Z,1.55
2019-04-25T10:27:36.218Z,1.37
2019-04-25T10:30:16.380Z,1.35
2019-04-25T10:32:31.061Z,1.22
2019-04-25T10:34:57.300Z,1.32
2019-04-25T10:37:23.090Z,1.00
2019-04-25T10:39:49.324Z,1.00
2019-04-25T10:42:15.225Z,1.22
2019-04-25T10:44:41.783Z,1.35
2019-04-25T10:47:08.428Z,1.50
2019-04-25T10:49:34.705Z,1.20
2019-04-25T10:52:00.542Z,1.70
2019-04-25T10:54:26.763Z,1.42
2019-04-25T10:56:52.979Z,1.75
2019-04-25T10:59:18.855Z,2.10
2019-04-25T11:01:46.147Z,3.30
2019-04-25T11:04:14.558Z,2.20
2019-04-25T11:06:40.886Z,2.40
2019-04-25T11:09:08.629Z,2.75
2019-04-25T11:11:34.853Z,2.60
2019-04-25T11:14:01.069Z,2.15
2019-04-25T11:16:26.947Z,3.27
2019-04-25T11:18:54.705Z,3.50
2019-04-25T11:21:20.470Z,2.30
2019-04-25T11:23:47.626Z,1.87
2019-04-25T11:26:14.804Z,1.10
2019-04-25T11:28:41.041Z,1.07
2019-04-25T11:31:08.830Z,1.72
2019-04-25T11:33:34.664Z,1.92
2019-04-25T11:36:00.833Z,1.42
2019-04-25T11:38:30.811Z,1.65
2019-04-25T11:40:58.148Z,1.60
2019-04-25T11:43:24.458Z,1.98
2019-04-25T11:45:50.680Z,1.00
2019-04-25T11:48:16.547Z,1.90
2019-04-25T11:50:44.101Z,1.90
2019-04-25T11:53:10.031Z,1.50
2019-04-25T11:55:36.411Z,1.80
2019-04-25T11:58:03.685Z,1.07
2019-04-25T12:00:31.740Z,1.07
2019-04-25T12:02:57.967Z,1.10
2019-04-25T12:05:24.197Z,0.62
2019-04-25T12:07:50.434Z,0.90
2019-04-25T12:10:17.108Z,0.60
2019-04-25T12:12:46.234Z,0.68
2019-04-25T12:15:10.933Z,0.60
2019-04-25T12:17:37.403Z,0.57
2019-04-25T12:20:04.012Z,0.55
2019-04-25T12:22:30.254Z,0.60
2019-04-25T12:24:56.146Z,0.50
2019-04-25T12:27:22.103Z,0.80
2019-04-25T12:29:48.567Z,0.85
2019-04-25T12:32:14.404Z,0.60
2019-04-25T12:34:40.283Z,0.47
2019-04-25T12:37:06.840Z,0.60
2019-04-25T12:39:34.184Z,0.62
2019-04-25T12:42:00.497Z,0.70
2019-04-25T12:44:37.050Z,0.60
2019-04-25T12:47:04.800Z,0.70
2019-04-25T12:49:30.642Z,0.60
2019-04-25T12:51:56.728Z,0.68
2019-04-25T12:54:23.863Z,0.60
2019-04-25T12:56:50.170Z,0.60
2019-04-25T12:59:16.391Z,0.68
2019-04-25T13:01:43.444Z,0.70
2019-04-25T13:04:09.666Z,0.60
2019-04-25T13:06:35.901Z,0.85
2019-04-25T13:09:01.748Z,0.37
2019-04-25T13:11:28.362Z,0.30
2019-04-25T13:13:55.095Z,0.80
2019-04-25T13:16:21.644Z,0.70
2019-04-25T13:18:47.510Z,0.70
2019-04-25T13:21:14.321Z,0.70
2019-04-25T13:23:40.741Z,1.10
2019-04-25T13:26:07.198Z,0.70
2019-04-25T13:28:51.666Z,0.80
2019-04-25T13:31:19.464Z,0.90
2019-04-25T13:33:47.779Z,0.68
2019-04-25T13:36:15.569Z,0.70
2019-04-25T13:38:41.394Z,0.80
2019-04-25T13:41:07.685Z,0.90
2019-04-25T13:43:34.061Z,0.60
2019-04-25T13:46:00.288Z,0.82
2019-04-25T13:48:27.793Z,0.60
2019-04-25T13:50:54.652Z,0.70
2019-04-25T13:53:20.874Z,0.68
2019-04-25T13:55:47.109Z,1.00
2019-04-25T13:58:14.365Z,0.90
2019-04-25T14:00:40.818Z,0.80
2019-04-25T14:03:06.701Z,0.85
2019-04-25T14:05:35.180Z,0.80
2019-04-25T14:08:01.548Z,0.75
2019-04-25T14:10:28.014Z,0.85
2019-04-25T14:12:53.850Z,0.65
2019-04-25T14:15:24.149Z,0.75
2019-04-25T14:18:06.673Z,0.90
2019-04-25T14:20:34.452Z,0.90
2019-04-25T14:23:00.301Z,0.62
2019-04-25T14:25:27.274Z,0.98
2019-04-25T14:27:54.535Z,0.70
2019-04-25T14:30:24.741Z,0.72
2019-04-25T14:32:50.098Z,0.88
2019-04-25T14:35:15.979Z,1.00
2019-04-25T14:37:41.826Z,0.98
2019-04-25T14:40:09.561Z,0.90
2019-04-25T14:42:35.777Z,1.37
2019-04-25T14:45:02.929Z,1.00
2019-04-25T14:47:29.591Z,1.05
2019-04-25T14:49:55.729Z,1.20
2019-04-25T14:52:22.025Z,0.70
2019-04-25T14:54:52.383Z,1.10
2019-04-25T14:57:23.415Z,0.90
2019-04-25T14:59:50.852Z,1.52
2019-04-25T15:02:16.851Z,1.60
2019-04-25T15:04:42.689Z,1.10
2019-04-25T15:07:09.133Z,1.20
2019-04-25T15:09:35.395Z,1.30
2019-04-25T15:12:01.497Z,1.00
2019-04-25T15:14:27.721Z,0.95
2019-04-25T15:16:53.945Z,0.95
2019-04-25T15:19:20.174Z,0.80
2019-04-25T15:21:46.405Z,0.85
2019-04-25T15:24:12.639Z,1.22
2019-04-25T15:26:40.322Z,1.07
2019-04-25T15:29:06.734Z,1.20
2019-04-25T15:31:32.589Z,1.10
2019-04-25T15:33:58.623Z,1.20
2019-04-25T15:36:38.336Z,0.75
2019-04-25T15:39:15.817Z,0.85
2019-04-25T15:41:52.826Z,0.70
2019-04-25T15:44:29.519Z,0.78
2019-04-25T15:46:57.286Z,0.88
2019-04-25T15:49:23.166Z,1.10
2019-04-25T15:51:48.999Z,0.80
2019-04-25T15:54:15.313Z,0.55
2019-04-25T15:56:41.593Z,0.68
2019-04-25T15:59:07.862Z,0.60
2019-04-25T16:01:34.599Z,0.60
2019-04-25T16:04:00.729Z,1.00
2019-04-25T16:06:26.965Z,0.70
2019-04-25T16:08:53.637Z,0.60
2019-04-25T16:11:19.794Z,1.10
2019-04-25T16:13:46.020Z,0.80
2019-04-25T16:16:12.274Z,0.90
2019-04-25T16:18:38.239Z,0.88
2019-04-25T16:21:04.482Z,0.75
2019-04-25T16:23:30.380Z,0.90
2019-04-25T16:25:56.841Z,0.85
2019-04-25T16:28:23.073Z,0.75
2019-04-25T16:30:49.402Z,0.55
2019-04-25T16:33:15.528Z,0.57
2019-04-25T16:35:41.261Z,0.70
2019-04-25T16:38:08.495Z,0.60
2019-04-25T16:40:34.320Z,0.88
2019-04-25T16:43:02.183Z,0.93
2019-04-25T16:45:28.929Z,0.57
2019-04-25T16:47:55.817Z,0.90
2019-04-25T16:50:22.186Z,0.70
2019-04-25T16:52:48.673Z,0.55
2019-04-25T16:55:14.985Z,0.70
2019-04-25T16:57:41.978Z,0.70
2019-04-25T17:00:10.141Z,0.90
2019-04-25T17:02:39.640Z,0.80
2019-04-25T17:05:06.309Z,0.88
2019-04-25T17:07:32.705Z,0.70
2019-04-25T17:09:59.174Z,0.85
2019-04-25T17:12:26.223Z,0.65
2019-04-25T17:15:00.676Z,0.80
2019-04-25T17:17:34.454Z,0.80
2019-04-25T17:20:07.994Z,1.10
2019-04-25T17:22:35.105Z,0.70
2019-04-25T17:25:01.578Z,0.70
2019-04-25T17:27:27.963Z,0.75
2019-04-25T17:29:53.943Z,0.70
2019-04-25T17:32:28.081Z,1.07
2019-04-25T17:35:08.034Z,0.63
2019-04-25T17:37:38.972Z,0.85
2019-04-25T17:40:07.019Z,0.80
2019-04-25T17:42:33.724Z,0.68
2019-04-25T17:45:00.893Z,0.90
2019-04-25T17:47:26.762Z,0.80
2019-04-25T17:49:52.587Z,0.50
2019-04-25T17:52:19.154Z,0.98
2019-04-25T17:54:45.976Z,0.80
2019-04-25T17:57:12.204Z,0.80
2019-04-25T17:59:38.033Z,0.90
2019-04-25T18:02:04.289Z,0.80
2019-04-25T18:04:30.113Z,0.70
2019-04-25T18:06:56.084Z,0.47
2019-04-25T18:09:23.338Z,0.55
2019-04-25T18:11:49.234Z,0.68
2019-04-25T18:14:15.069Z,0.82
2019-04-25T18:16:45.721Z,0.90
2019-04-25T18:19:13.515Z,0.75
2019-04-25T18:21:40.526Z,0.65
2019-04-25T18:24:08.705Z,0.82
2019-04-25T18:26:39.230Z,0.70
2019-04-25T18:29:07.379Z,0.78
2019-04-25T18:31:33.355Z,0.70
2019-04-25T18:34:01.089Z,0.88
2019-04-25T18:36:48.385Z,0.70
2019-04-25T18:39:19.534Z,0.80
2019-04-25T18:41:47.278Z,0.90
2019-04-25T18:44:14.145Z,1.12
2019-04-25T18:46:42.589Z,1.12
2019-04-25T18:49:08.957Z,0.93
2019-04-25T18:51:34.854Z,0.95
2019-04-25T18:54:11.655Z,1.00
2019-04-25T18:56:51.777Z,0.98
2019-04-25T18:59:22.939Z,1.10
2019-04-25T19:01:53.798Z,1.15
2019-04-25T19:04:27.376Z,1.00
2019-04-25T19:06:58.084Z,1.10
2019-04-25T19:09:21.367Z,1.30
2019-04-25T19:11:47.242Z,1.37
2019-04-25T19:14:13.118Z,1.15
2019-04-25T19:16:39.807Z,1.17
2019-04-25T19:19:06.618Z,1.20
2019-04-25T19:21:33.342Z,1.20
2019-04-25T19:23:59.536Z,0.90
2019-04-25T19:26:25.692Z,1.00
2019-04-25T19:28:51.826Z,0.98
2019-04-25T19:31:18.150Z,0.93
2019-04-25T19:33:45.416Z,0.93
2019-04-25T19:36:12.020Z,1.20
2019-04-25T19:38:37.927Z,1.30
2019-04-25T19:41:06.128Z,1.10
2019-04-25T19:43:34.405Z,1.12
2019-04-25T19:46:00.633Z,1.35
2019-04-25T19:48:28.081Z,1.07
2019-04-25T19:50:53.985Z,1.30
2019-04-25T19:53:19.894Z,1.10
2019-04-25T19:55:46.366Z,1.55
2019-04-25T19:58:12.485Z,1.60
2019-04-25T20:00:38.357Z,1.60
2019-04-25T20:03:06.577Z,1.47
2019-04-25T20:05:37.358Z,1.55
2019-04-25T20:08:17.178Z,1.70
2019-04-25T20:11:09.026Z,1.90
2019-04-25T20:13:35.325Z,2.10
2019-04-25T20:16:01.102Z,1.70
2019-04-25T20:18:26.941Z,1.72
2019-04-25T20:20:52.788Z,2.10
2019-04-25T20:23:19.016Z,1.72
2019-04-25T20:25:46.275Z,1.82
2019-04-25T20:28:12.310Z,2.02
2019-04-25T20:30:38.183Z,2.00
2019-04-25T20:33:04.766Z,2.85
2019-04-25T20:35:30.998Z,2.47
2019-04-25T20:37:56.866Z,2.70
2019-04-25T20:40:22.909Z,2.67
2019-04-25T20:42:49.685Z,2.50
2019-04-25T20:45:16.259Z,2.12
2019-04-25T20:47:42.733Z,2.30
2019-04-25T20:50:08.615Z,2.15
2019-04-25T20:52:34.786Z,1.80
2019-04-25T20:55:00.613Z,2.47
2019-04-25T20:57:27.022Z,2.40
2019-04-25T20:59:53.921Z,2.92
2019-04-25T21:02:20.317Z,2.87
2019-04-25T21:04:46.481Z,3.30
2019-04-25T21:07:12.711Z,2.47
2019-04-25T21:09:39.229Z,2.65
2019-04-25T21:12:05.240Z,2.47
2019-04-25T21:14:50.884Z,2.40
2019-04-25T21:17:24.985Z,2.10
2019-04-25T21:19:54.080Z,2.33
2019-04-25T21:22:20.730Z,2.22
2019-04-25T21:24:47.063Z,1.87
2019-04-25T21:27:12.945Z,2.00
2019-04-25T21:29:39.203Z,2.20
2019-04-25T21:32:05.414Z,2.17
2019-04-25T21:34:31.865Z,2.42
2019-04-25T21:36:58.360Z,2.27
2019-04-25T21:39:44.568Z,2.10
2019-04-25T21:42:21.861Z,2.40
2019-04-25T21:44:48.506Z,2.55
2019-04-25T21:47:14.737Z,1.98
2019-04-25T21:49:41.010Z,2.10
2019-04-25T21:52:06.960Z,1.98
2019-04-25T21:54:32.980Z,2.00
2019-04-25T21:56:59.748Z,1.72
2019-04-25T21:59:26.222Z,2.25
2019-04-25T22:01:52.219Z,1.82
2019-04-25T22:04:18.624Z,1.95
2019-04-25T22:06:45.359Z,2.33
2019-04-25T22:09:13.155Z,2.37
2019-04-25T22:11:39.799Z,2.62
2019-04-25T22:14:07.169Z,2.20
2019-04-25T22:16:33.467Z,2.40
2019-04-25T22:19:00.137Z,2.60
2019-04-25T22:21:37.390Z,2.25
2019-04-25T22:24:06.182Z,2.15
2019-04-25T22:26:22.411Z,2.50
2019-04-25T22:28:49.045Z,2.62
2019-04-25T22:31:19.618Z,2.17
2019-04-25T22:33:55.495Z,3.00
2019-04-25T22:36:22.609Z,2.40
2019-04-25T22:38:50.921Z,2.22
2019-04-25T22:41:16.795Z,2.20
2019-04-25T22:43:47.857Z,2.30
2019-04-25T22:46:25.456Z,2.30
2019-04-25T22:48:48.077Z,2.62
2019-04-25T22:51:14.855Z,2.70
2019-04-25T22:53:40.782Z,2.92
2019-04-25T22:56:07.364Z,3.25
2019-04-25T22:58:33.982Z,3.60
2019-04-25T23:01:00.722Z,3.67
2019-04-25T23:03:32.449Z,4.17
2019-04-25T23:05:58.326Z,4.45
2019-04-25T23:08:24.975Z,4.35
2019-04-25T23:10:50.895Z,4.30
2019-04-25T23:13:17.033Z,4.78
2019-04-25T23:15:43.363Z,4.25
2019-04-25T23:18:09.755Z,4.58
2019-04-25T23:20:35.825Z,4.20
2019-04-25T23:23:02.043Z,3.92
2019-04-25T23:25:30.110Z,3.75
2019-04-25T23:28:03.880Z,3.50
2019-04-25T23:30:33.638Z,3.50
2019-04-25T23:32:59.503Z,4.00
2019-04-25T23:35:31.565Z,4.28
2019-04-25T23:37:53.345Z,4.30
2019-04-25T23:40:19.572Z,3.40
2019-04-25T23:42:45.799Z,4.33
2019-04-25T23:45:12.410Z,3.90
2019-04-25T23:47:38.311Z,4.47
2019-04-25T23:50:07.071Z,4.28
2019-04-25T23:52:33.589Z,4.20
2019-04-25T23:54:59.444Z,5.10
2019-04-25T23:57:25.410Z,4.80
2019-04-25T23:59:51.870Z,4.87
